Wetterdaten: Woche 22.07.13 - 28.07.13 (KW30)
Datum Zeit Temperatur Luftfeuchte Luftdruck Niederschlag Windrichtung Sonnenschein Solar Wind
22.07.2013 00:00 18,3 C 75 % 1015,4 hPa 0,0 l/m N 0,00 h 0 W/m 1,5 km/h (1 Bft)
22.07.2013 01:00 17,8 C 74 % 1015,3 hPa 0,0 l/m N 0,00 h 0 W/m 1,7 km/h (1 Bft)
22.07.2013 02:00 17,4 C 77 % 1015,1 hPa 0,0 l/m O-NO 0,00 h 0 W/m 3,6 km/h (1 Bft)
22.07.2013 03:00 16,8 C 80 % 1015,1 hPa 0,0 l/m NO 0,00 h 0 W/m 6,4 km/h (2 Bft)
22.07.2013 04:00 16,1 C 81 % 1015,0 hPa 0,0 l/m N 0,00 h 0 W/m 2,5 km/h (1 Bft)
22.07.2013 05:00 15,4 C 84 % 1015,1 hPa 0,0 l/m N 0,00 h 6 W/m 1,5 km/h (1 Bft)
22.07.2013 06:00 15,3 C 84 % 1015,3 hPa 0,0 l/m N 0,00 h 31 W/m 0,1 km/h (0 Bft)
22.07.2013 07:00 17,1 C 78 % 1015,3 hPa 0,0 l/m N 0,58 h 154 W/m 1,7 km/h (1 Bft)
22.07.2013 08:00 19,5 C 71 % 1015,4 hPa 0,0 l/m N-NO 1,00 h 317 W/m 1,9 km/h (1 Bft)
22.07.2013 09:00 21,8 C 66 % 1015,3 hPa 0,0 l/m N 1,00 h 482 W/m 3,3 km/h (1 Bft)
22.07.2013 10:00 23,8 C 62 % 1015,1 hPa 0,0 l/m NO 1,00 h 634 W/m 4,8 km/h (1 Bft)
22.07.2013 11:00 25,6 C 56 % 1014,9 hPa 0,0 l/m O 1,00 h 758 W/m 9,4 km/h (2 Bft)
22.07.2013 12:00 27,3 C 46 % 1014,6 hPa 0,0 l/m O-NO 1,00 h 841 W/m 9,3 km/h (2 Bft)
22.07.2013 13:00 28,2 C 40 % 1014,2 hPa 0,0 l/m NO 1,00 h 876 W/m 8,4 km/h (2 Bft)
22.07.2013 14:00 29,3 C 36 % 1013,8 hPa 0,0 l/m N-NO 1,00 h 863 W/m 9,8 km/h (2 Bft)
22.07.2013 15:00 30,3 C 33 % 1013,3 hPa 0,0 l/m N-NO 1,00 h 809 W/m 10,3 km/h (2 Bft)
22.07.2013 16:00 30,8 C 32 % 1012,8 hPa 0,0 l/m N-NO 1,00 h 702 W/m 9,0 km/h (2 Bft)
22.07.2013 17:00 30,6 C 32 % 1012,5 hPa 0,0 l/m NO 1,00 h 560 W/m 8,1 km/h (2 Bft)
22.07.2013 18:00 30,3 C 32 % 1011,9 hPa 0,0 l/m O-NO 0,75 h 308 W/m 11,1 km/h (2 Bft)
22.07.2013 19:00 27,1 C 42 % 1011,8 hPa 0,0 l/m O-NO 0,08 h 94 W/m 2,9 km/h (1 Bft)
22.07.2013 20:00 24,3 C 51 % 1011,9 hPa 0,0 l/m N 0,17 h 33 W/m 2,1 km/h (1 Bft)
22.07.2013 21:00 22,1 C 58 % 1012,4 hPa 0,0 l/m N 0,00 h 5 W/m 0,9 km/h (0 Bft)
22.07.2013 22:00 20,6 C 61 % 1012,6 hPa 0,0 l/m N 0,00 h 0 W/m 1,2 km/h (1 Bft)
22.07.2013 23:00 19,4 C 67 % 1012,7 hPa 0,0 l/m N 0,00 h 0 W/m 0,0 km/h (0 Bft)
23.07.2013 00:00 18,1 C 74 % 1012,7 hPa 0,0 l/m N 0,00 h 0 W/m 0,0 km/h (0 Bft)
23.07.2013 01:00 17,4 C 78 % 1012,3 hPa 0,0 l/m N 0,00 h 0 W/m 0,3 km/h (0 Bft)
23.07.2013 02:00 17,0 C 80 % 1012,1 hPa 0,0 l/m N 0,00 h 0 W/m 0,8 km/h (0 Bft)
23.07.2013 03:00 15,9 C 85 % 1012,1 hPa 0,0 l/m N 0,00 h 0 W/m 0,0 km/h (0 Bft)
23.07.2013 04:00 15,3 C 87 % 1011,7 hPa 0,0 l/m N 0,00 h 0 W/m 0,3 km/h (0 Bft)
23.07.2013 05:00 15,0 C 88 % 1011,5 hPa 0,0 l/m N 0,00 h 6 W/m 0,0 km/h (0 Bft)
23.07.2013 06:00 14,7 C 89 % 1011,6 hPa 0,0 l/m N 0,00 h 28 W/m 0,0 km/h (0 Bft)
23.07.2013 07:00 16,8 C 83 % 1011,5 hPa 0,0 l/m N 0,25 h 136 W/m 0,0 km/h (0 Bft)
23.07.2013 08:00 19,6 C 76 % 1011,8 hPa 0,0 l/m S-SO 1,00 h 283 W/m 0,9 km/h (0 Bft)
23.07.2013 09:00 22,9 C 67 % 1011,8 hPa 0,0 l/m S 0,92 h 441 W/m 7,9 km/h (2 Bft)
23.07.2013 10:00 24,8 C 64 % 1011,7 hPa 0,0 l/m S-SW 0,92 h 551 W/m 10,2 km/h (2 Bft)
23.07.2013 11:00 26,8 C 58 % 1011,3 hPa 0,0 l/m S-SW 1,00 h 707 W/m 8,3 km/h (2 Bft)
23.07.2013 12:00 28,2 C 51 % 1011,0 hPa 0,0 l/m S-SW 1,00 h 811 W/m 10,7 km/h (2 Bft)
23.07.2013 13:00 29,7 C 43 % 1010,6 hPa 0,0 l/m S-SW 0,75 h 687 W/m 11,1 km/h (2 Bft)
23.07.2013 14:00 24,9 C 59 % 1011,1 hPa 0,4 l/m N-NW 0,00 h 64 W/m 17,2 km/h (3 Bft)
23.07.2013 15:00 21,1 C 84 % 1010,6 hPa 0,2 l/m N-NW 0,00 h 193 W/m 7,1 km/h (2 Bft)
23.07.2013 16:00 23,5 C 80 % 1010,0 hPa 0,0 l/m N 0,25 h 325 W/m 5,9 km/h (2 Bft)
23.07.2013 17:00 26,5 C 56 % 1010,1 hPa 0,2 l/m NW 0,75 h 382 W/m 8,4 km/h (2 Bft)
23.07.2013 18:00 25,8 C 56 % 1010,0 hPa 0,0 l/m N 0,00 h 106 W/m 13,0 km/h (3 Bft)
23.07.2013 19:00 23,9 C 61 % 1010,5 hPa 0,0 l/m N-NW 0,00 h 62 W/m 10,2 km/h (2 Bft)
23.07.2013 20:00 22,6 C 67 % 1010,6 hPa 0,0 l/m N 0,00 h 16 W/m 1,3 km/h (1 Bft)
23.07.2013 21:00 21,0 C 74 % 1011,1 hPa 0,0 l/m W 0,00 h 0 W/m 5,6 km/h (1 Bft)
23.07.2013 22:00 21,7 C 67 % 1012,5 hPa 0,0 l/m W 0,00 h 0 W/m 13,7 km/h (3 Bft)
23.07.2013 23:00 19,9 C 77 % 1012,7 hPa 0,0 l/m S 0,00 h 0 W/m 7,0 km/h (2 Bft)
24.07.2013 00:00 18,7 C 84 % 1012,8 hPa 0,0 l/m N 0,00 h 0 W/m 0,9 km/h (0 Bft)
24.07.2013 01:00 17,8 C 88 % 1012,0 hPa 0,0 l/m N 0,00 h 0 W/m 2,0 km/h (1 Bft)
24.07.2013 02:00 17,3 C 89 % 1011,8 hPa 0,0 l/m S-SW 0,00 h 0 W/m 2,7 km/h (1 Bft)
24.07.2013 03:00 16,1 C 92 % 1011,7 hPa 0,0 l/m N 0,00 h 0 W/m 0,0 km/h (0 Bft)
24.07.2013 04:00 15,7 C 94 % 1011,8 hPa 0,0 l/m N 0,00 h 0 W/m 0,5 km/h (0 Bft)
24.07.2013 05:00 15,2 C 95 % 1012,0 hPa 0,0 l/m N 0,00 h 5 W/m 0,4 km/h (0 Bft)
24.07.2013 06:00 14,7 C 96 % 1012,4 hPa 0,0 l/m S-SW 0,00 h 18 W/m 2,3 km/h (1 Bft)
24.07.2013 07:00 15,8 C 94 % 1012,8 hPa 0,0 l/m S-SW 0,42 h 138 W/m 4,1 km/h (1 Bft)
24.07.2013 08:00 18,4 C 88 % 1013,1 hPa 0,0 l/m S-SW 1,00 h 286 W/m 13,6 km/h (3 Bft)
24.07.2013 09:00 20,5 C 81 % 1013,2 hPa 0,0 l/m SW 1,00 h 437 W/m 14,8 km/h (3 Bft)
24.07.2013 10:00 22,0 C 75 % 1013,2 hPa 0,0 l/m SW 0,33 h 290 W/m 12,2 km/h (2 Bft)
24.07.2013 11:00 21,6 C 80 % 1013,2 hPa 0,0 l/m W 0,00 h 182 W/m 11,0 km/h (2 Bft)
24.07.2013 12:00 20,8 C 83 % 1013,7 hPa 0,4 l/m W 0,00 h 113 W/m 19,3 km/h (3 Bft)
24.07.2013 13:00 17,5 C 93 % 1014,2 hPa 4,6 l/m W 0,00 h 90 W/m 13,4 km/h (3 Bft)
24.07.2013 14:00 19,2 C 92 % 1013,8 hPa 0,0 l/m W-NW 0,00 h 271 W/m 5,9 km/h (2 Bft)
24.07.2013 15:00 20,6 C 85 % 1013,9 hPa 0,0 l/m W-NW 0,25 h 452 W/m 10,8 km/h (2 Bft)
24.07.2013 16:00 21,5 C 80 % 1013,9 hPa 0,0 l/m NW 0,17 h 213 W/m 10,3 km/h (2 Bft)
24.07.2013 17:00 19,6 C 90 % 1014,1 hPa 1,2 l/m NW 0,00 h 27 W/m 4,3 km/h (1 Bft)
24.07.2013 18:00 19,1 C 96 % 1013,6 hPa 0,2 l/m SW 0,25 h 146 W/m 6,6 km/h (2 Bft)
24.07.2013 19:00 19,3 C 94 % 1013,5 hPa 0,0 l/m SW 0,50 h 149 W/m 7,1 km/h (2 Bft)
24.07.2013 20:00 18,5 C 94 % 1013,8 hPa 0,0 l/m SW 0,00 h 32 W/m 5,9 km/h (2 Bft)
24.07.2013 21:00 17,9 C 96 % 1014,4 hPa 0,0 l/m N 0,00 h 7 W/m 0,3 km/h (0 Bft)
24.07.2013 22:00 16,9 C 97 % 1015,2 hPa 0,0 l/m N 0,00 h 0 W/m 0,0 km/h (0 Bft)
24.07.2013 23:00 16,3 C 98 % 1015,5 hPa 0,0 l/m N 0,00 h 0 W/m 0,0 km/h (0 Bft)
25.07.2013 00:00 15,8 C 98 % 1015,6 hPa 0,0 l/m N 0,00 h 0 W/m 0,0 km/h (0 Bft)
25.07.2013 01:00 15,4 C 99 % 1015,7 hPa 0,0 l/m N 0,00 h 0 W/m 0,0 km/h (0 Bft)
25.07.2013 02:00 15,1 C 99 % 1015,4 hPa 0,0 l/m N 0,00 h 0 W/m 0,3 km/h (0 Bft)
25.07.2013 03:00 14,7 C 99 % 1015,2 hPa 0,0 l/m N 0,00 h 0 W/m 0,1 km/h (0 Bft)
25.07.2013 04:00 14,2 C 99 % 1015,4 hPa 0,0 l/m N 0,00 h 0 W/m 0,0 km/h (0 Bft)
25.07.2013 05:00 13,7 C 99 % 1015,2 hPa 0,0 l/m N 0,00 h 5 W/m 0,0 km/h (0 Bft)
25.07.2013 06:00 13,6 C 99 % 1015,4 hPa 0,2 l/m N 0,00 h 25 W/m 0,0 km/h (0 Bft)
25.07.2013 07:00 14,8 C 100 % 1015,5 hPa 0,0 l/m N 0,50 h 140 W/m 0,3 km/h (0 Bft)
25.07.2013 08:00 17,2 C 98 % 1015,6 hPa 0,0 l/m N 1,00 h 303 W/m 0,9 km/h (0 Bft)
25.07.2013 09:00 20,5 C 87 % 1015,6 hPa 0,0 l/m SW 1,00 h 465 W/m 2,0 km/h (1 Bft)
25.07.2013 10:00 22,8 C 79 % 1015,4 hPa 0,0 l/m SW 0,92 h 592 W/m 3,5 km/h (1 Bft)
25.07.2013 11:00 24,8 C 71 % 1015,3 hPa 0,0 l/m S 0,75 h 689 W/m 6,2 km/h (2 Bft)
25.07.2013 12:00 25,6 C 67 % 1015,0 hPa 1,4 l/m S-SW 0,42 h 451 W/m 10,5 km/h (2 Bft)
25.07.2013 13:00 23,6 C 78 % 1014,9 hPa 0,0 l/m NO 0,25 h 426 W/m 8,9 km/h (2 Bft)
25.07.2013 14:00 26,9 C 61 % 1014,3 hPa 0,0 l/m W-SW 0,83 h 769 W/m 16,1 km/h (3 Bft)
25.07.2013 15:00 27,9 C 54 % 1013,9 hPa 0,0 l/m W-SW 0,50 h 492 W/m 16,6 km/h (3 Bft)
25.07.2013 16:00 25,7 C 66 % 1013,8 hPa 0,2 l/m N-NW 0,67 h 544 W/m 10,2 km/h (2 Bft)
25.07.2013 17:00 26,1 C 61 % 1013,6 hPa 0,2 l/m W-SW 0,17 h 116 W/m 11,4 km/h (2 Bft)
25.07.2013 18:00 21,8 C 82 % 1014,1 hPa 0,6 l/m NW 0,08 h 128 W/m 11,9 km/h (2 Bft)
25.07.2013 19:00 21,9 C 88 % 1013,8 hPa 0,0 l/m W-SW 0,92 h 171 W/m 3,2 km/h (1 Bft)
25.07.2013 20:00 20,8 C 91 % 1014,1 hPa 0,0 l/m N 0,17 h 28 W/m 1,5 km/h (1 Bft)
25.07.2013 21:00 19,4 C 94 % 1014,4 hPa 0,0 l/m N 0,00 h 5 W/m 1,1 km/h (0 Bft)
25.07.2013 22:00 18,9 C 96 % 1014,8 hPa 0,0 l/m N 0,00 h 0 W/m 0,5 km/h (0 Bft)
25.07.2013 23:00 18,3 C 97 % 1014,9 hPa 0,0 l/m N 0,00 h 0 W/m 0,0 km/h (0 Bft)
26.07.2013 00:00 17,7 C 97 % 1015,0 hPa 0,0 l/m N 0,00 h 0 W/m 0,4 km/h (0 Bft)
26.07.2013 01:00 17,0 C 97 % 1015,0 hPa 0,0 l/m N 0,00 h 0 W/m 0,0 km/h (0 Bft)
26.07.2013 02:00 16,5 C 98 % 1015,0 hPa 0,0 l/m N 0,00 h 0 W/m 0,0 km/h (0 Bft)
26.07.2013 03:00 16,1 C 98 % 1014,6 hPa 0,0 l/m N 0,00 h 0 W/m 0,0 km/h (0 Bft)
26.07.2013 04:00 15,8 C 98 % 1014,1 hPa 0,0 l/m N 0,00 h 0 W/m 0,0 km/h (0 Bft)
26.07.2013 05:00 15,4 C 99 % 1014,3 hPa 0,0 l/m N 0,00 h 5 W/m 0,0 km/h (0 Bft)
26.07.2013 06:00 15,6 C 99 % 1014,5 hPa 0,0 l/m N 0,00 h 28 W/m 0,7 km/h (0 Bft)
26.07.2013 07:00 17,2 C 97 % 1014,1 hPa 0,0 l/m N 0,58 h 146 W/m 0,1 km/h (0 Bft)
26.07.2013 08:00 20,3 C 86 % 1014,0 hPa 0,0 l/m N 1,00 h 291 W/m 0,0 km/h (0 Bft)
26.07.2013 09:00 23,0 C 77 % 1013,9 hPa 0,0 l/m N 1,00 h 475 W/m 0,3 km/h (0 Bft)
26.07.2013 10:00 25,4 C 67 % 1013,4 hPa 0,0 l/m O-SO 1,00 h 556 W/m 7,2 km/h (2 Bft)
26.07.2013 11:00 26,7 C 61 % 1013,3 hPa 0,0 l/m SO 1,00 h 638 W/m 4,0 km/h (1 Bft)
26.07.2013 12:00 28,1 C 55 % 1012,8 hPa 0,0 l/m O-SO 1,00 h 758 W/m 5,1 km/h (1 Bft)
26.07.2013 13:00 29,4 C 48 % 1012,3 hPa 0,0 l/m SO 1,00 h 809 W/m 6,8 km/h (2 Bft)
26.07.2013 14:00 30,9 C 43 % 1012,1 hPa 0,0 l/m SO 1,00 h 837 W/m 6,5 km/h (2 Bft)
26.07.2013 15:00 31,5 C 39 % 1011,5 hPa 0,0 l/m NO 1,00 h 752 W/m 7,4 km/h (2 Bft)
26.07.2013 16:00 31,2 C 39 % 1011,1 hPa 0,0 l/m NO 0,42 h 400 W/m 5,5 km/h (1 Bft)
26.07.2013 17:00 30,5 C 43 % 1010,9 hPa 0,0 l/m N-NO 0,25 h 225 W/m 8,3 km/h (2 Bft)
26.07.2013 18:00 28,5 C 53 % 1010,6 hPa 0,0 l/m N 0,00 h 116 W/m 2,3 km/h (1 Bft)
26.07.2013 19:00 28,0 C 58 % 1010,2 hPa 0,0 l/m N 0,83 h 195 W/m 0,0 km/h (0 Bft)
26.07.2013 20:00 25,1 C 69 % 1010,1 hPa 0,0 l/m N 0,00 h 17 W/m 0,0 km/h (0 Bft)
26.07.2013 21:00 23,0 C 74 % 1010,3 hPa 0,0 l/m N 0,00 h 5 W/m 0,0 km/h (0 Bft)
26.07.2013 22:00 21,8 C 78 % 1010,5 hPa 0,0 l/m N 0,00 h 0 W/m 0,1 km/h (0 Bft)
26.07.2013 23:00 20,9 C 81 % 1010,3 hPa 0,0 l/m N 0,00 h 0 W/m 0,0 km/h (0 Bft)
27.07.2013 00:00 19,9 C 85 % 1010,2 hPa 0,0 l/m N 0,00 h 0 W/m 0,0 km/h (0 Bft)
27.07.2013 01:00 19,1 C 88 % 1009,9 hPa 0,0 l/m N 0,00 h 0 W/m 1,3 km/h (1 Bft)
27.07.2013 02:00 18,0 C 91 % 1009,8 hPa 0,0 l/m N 0,00 h 0 W/m 0,1 km/h (0 Bft)
27.07.2013 03:00 17,5 C 92 % 1009,7 hPa 0,0 l/m N 0,00 h 0 W/m 0,0 km/h (0 Bft)
27.07.2013 04:00 17,5 C 92 % 1009,7 hPa 0,0 l/m N 0,00 h 0 W/m 0,5 km/h (0 Bft)
27.07.2013 05:00 17,0 C 93 % 1009,9 hPa 0,0 l/m N 0,00 h 5 W/m 0,0 km/h (0 Bft)
27.07.2013 06:00 16,8 C 95 % 1010,1 hPa 0,0 l/m N 0,00 h 27 W/m 0,0 km/h (0 Bft)
27.07.2013 07:00 18,4 C 91 % 1009,9 hPa 0,0 l/m N 0,33 h 129 W/m 0,0 km/h (0 Bft)
27.07.2013 08:00 21,1 C 82 % 1009,6 hPa 0,0 l/m N 1,00 h 287 W/m 0,0 km/h (0 Bft)
27.07.2013 09:00 24,3 C 72 % 1009,4 hPa 0,0 l/m S-SO 1,00 h 450 W/m 7,9 km/h (2 Bft)
27.07.2013 10:00 26,6 C 64 % 1009,1 hPa 0,0 l/m S 0,92 h 578 W/m 5,2 km/h (1 Bft)
27.07.2013 11:00 28,7 C 57 % 1008,8 hPa 0,0 l/m S-SW 1,00 h 721 W/m 2,5 km/h (1 Bft)
27.07.2013 12:00 30,8 C 47 % 1008,2 hPa 0,0 l/m S 1,00 h 807 W/m 7,9 km/h (2 Bft)
27.07.2013 13:00 32,1 C 42 % 1007,9 hPa 0,0 l/m O-SO 1,00 h 843 W/m 6,0 km/h (2 Bft)
27.07.2013 14:00 33,1 C 42 % 1007,5 hPa 0,0 l/m S-SW 1,00 h 824 W/m 7,5 km/h (2 Bft)
27.07.2013 15:00 34,1 C 38 % 1007,0 hPa 0,0 l/m S-SW 1,00 h 768 W/m 13,6 km/h (3 Bft)
27.07.2013 16:00 34,5 C 34 % 1006,5 hPa 0,0 l/m SW 1,00 h 673 W/m 9,4 km/h (2 Bft)
27.07.2013 17:00 34,4 C 30 % 1006,2 hPa 0,0 l/m SW 1,00 h 539 W/m 11,8 km/h (2 Bft)
27.07.2013 18:00 33,6 C 32 % 1005,8 hPa 0,0 l/m W-SW 1,00 h 372 W/m 5,5 km/h (1 Bft)
27.07.2013 19:00 31,2 C 45 % 1005,4 hPa 0,0 l/m N 1,00 h 191 W/m 0,9 km/h (0 Bft)
27.07.2013 20:00 27,0 C 57 % 1005,0 hPa 0,0 l/m N 0,17 h 27 W/m 0,3 km/h (0 Bft)
27.07.2013 21:00 24,1 C 63 % 1004,8 hPa 0,0 l/m N 0,00 h 0 W/m 0,0 km/h (0 Bft)
27.07.2013 22:00 22,6 C 68 % 1005,0 hPa 0,0 l/m N 0,00 h 0 W/m 0,5 km/h (0 Bft)
27.07.2013 23:00 22,0 C 68 % 1005,0 hPa 0,0 l/m N 0,00 h 0 W/m 0,7 km/h (0 Bft)
28.07.2013 00:00 20,6 C 76 % 1004,9 hPa 0,0 l/m N 0,00 h 0 W/m 0,0 km/h (0 Bft)
28.07.2013 01:00 19,8 C 81 % 1005,3 hPa 0,0 l/m N 0,00 h 0 W/m 0,0 km/h (0 Bft)
28.07.2013 02:00 23,0 C 64 % 1006,6 hPa 0,0 l/m W-NW 0,00 h 0 W/m 13,8 km/h (3 Bft)
28.07.2013 03:00 22,7 C 64 % 1007,7 hPa 0,0 l/m NW 0,00 h 0 W/m 6,2 km/h (2 Bft)
28.07.2013 04:00 20,2 C 76 % 1008,5 hPa 0,0 l/m N 0,00 h 0 W/m 1,3 km/h (1 Bft)
28.07.2013 05:00 18,8 C 82 % 1009,0 hPa 0,0 l/m N 0,00 h 5 W/m 0,4 km/h (0 Bft)
28.07.2013 06:00 18,5 C 85 % 1009,4 hPa 0,0 l/m N 0,00 h 28 W/m 0,5 km/h (0 Bft)
28.07.2013 07:00 20,2 C 81 % 1009,5 hPa 0,0 l/m N 0,00 h 76 W/m 0,7 km/h (0 Bft)
28.07.2013 08:00 21,6 C 79 % 1009,0 hPa 0,0 l/m N-NO 0,08 h 138 W/m 3,5 km/h (1 Bft)
28.07.2013 09:00 24,0 C 71 % 1008,8 hPa 0,0 l/m N-NO 0,17 h 210 W/m 7,5 km/h (2 Bft)
28.07.2013 10:00 26,9 C 60 % 1008,0 hPa 0,0 l/m O-NO 0,92 h 577 W/m 14,2 km/h (3 Bft)
28.07.2013 11:00 30,0 C 45 % 1007,6 hPa 0,0 l/m O 0,83 h 646 W/m 21,3 km/h (4 Bft)
28.07.2013 12:00 31,2 C 40 % 1006,9 hPa 0,0 l/m O-SO 0,75 h 716 W/m 24,0 km/h (4 Bft)
28.07.2013 13:00 32,5 C 38 % 1006,3 hPa 0,0 l/m O-SO 1,00 h 821 W/m 22,5 km/h (4 Bft)
28.07.2013 14:00 33,9 C 34 % 1005,6 hPa 0,0 l/m O-SO 1,00 h 827 W/m 18,6 km/h (3 Bft)
28.07.2013 15:00 34,8 C 32 % 1005,1 hPa 0,0 l/m O-NO 1,00 h 765 W/m 15,8 km/h (3 Bft)
28.07.2013 16:00 35,5 C 32 % 1004,5 hPa 0,0 l/m O-SO 0,92 h 673 W/m 13,7 km/h (3 Bft)
28.07.2013 17:00 34,9 C 31 % 1004,5 hPa 0,0 l/m W-SW 0,75 h 450 W/m 20,0 km/h (4 Bft)
28.07.2013 18:00 25,1 C 61 % 1007,5 hPa 0,0 l/m N-NW 0,00 h 123 W/m 40,9 km/h (6 Bft)
28.07.2013 19:00 21,5 C 64 % 1009,8 hPa 0,0 l/m N-NW 0,00 h 41 W/m 33,9 km/h (5 Bft)
28.07.2013 20:00 20,2 C 68 % 1011,5 hPa 0,0 l/m N-NW 0,00 h 12 W/m 17,8 km/h (3 Bft)
28.07.2013 21:00 18,8 C 71 % 1012,4 hPa 0,0 l/m NW 0,00 h 0 W/m 4,4 km/h (1 Bft)
28.07.2013 22:00 18,1 C 77 % 1012,8 hPa 0,0 l/m N 0,00 h 0 W/m 1,7 km/h (1 Bft)
28.07.2013 23:00 17,4 C 80 % 1012,7 hPa 0,0 l/m N 0,00 h 0 W/m 0,7 km/h (0 Bft)
Min-Datum _ 25.07.13 27.07.13 28.07.13 - - - - 22.07.13
_ Min-Zeit 06:05 17:10 16:55 - - - - 00:10
Minimum _ 13,3 C 27 % 1004,2 hPa - - - - 0,0 km/h (0 Bft)
Max-Datum _ 28.07.13 25.07.13 25.07.13 24.07.13 - 22.07.13 25.07.13 28.07.13
_ Max-Zeit 16:50 06:25 01:25 13:20 - 07:25 13:45 18:20
Maximum _ 36,2 C 100 % 1015,8 hPa 4,6 l/m - 0,08 h 969 W/m 53,1 km/h
N-NW (7 Bft)
Durchschnitt _ 22,2 C 72 % 1011,8 hPa #9,8 l/m SW #60:25 h 345 W/m 5,5 km/h (1 Bft)